Time,TemperatureF,DewpointF,PressureIn,WindDirection,WindDirectionDegrees,WindSpeedMPH,WindSpeedGustMPH,Humidity,HourlyPrecipIn,Conditions,Clouds,dailyrainin,SolarRadiationWatts/m^2,SoftwareType,DateUTC
2013-11-25 00:02:00,21.0,14.0,-100.00,NW,323,9.0,13.0,74,-99.99,,,0.00,0.000000,,2013-11-25 09:02:00,
2013-11-25 00:11:00,21.0,14.0,-100.00,NW,323,9.0,13.0,74,-99.99,,,0.00,0.000000,,2013-11-25 09:11:00,
2013-11-25 00:21:00,21.0,14.0,-100.00,NW,323,9.0,13.0,74,-99.99,,,0.00,0.000000,,2013-11-25 09:21:00,
2013-11-25 00:53:00,21.0,14.0,-100.00,NNW,327,9.0,15.0,74,0.00,,,0.00,0.000000,,2013-11-25 09:53:00,
2013-11-25 01:03:00,21.0,14.0,-100.00,NNW,327,9.0,15.0,74,0.00,,,0.00,0.000000,,2013-11-25 10:03:00,
2013-11-25 01:23:00,21.0,14.0,-100.00,NNW,327,9.0,15.0,74,0.00,,,0.00,0.000000,,2013-11-25 10:23:00,
2013-11-25 01:53:00,21.0,15.0,-100.00,NNW,340,9.0,16.0,75,0.00,,,0.00,0.000000,,2013-11-25 10:53:00,
2013-11-25 02:02:00,21.0,15.0,-100.00,NNW,340,9.0,16.0,75,0.00,,,0.00,0.000000,,2013-11-25 11:02:00,
2013-11-25 02:12:00,21.0,15.0,-100.00,NNW,340,9.0,16.0,75,0.00,,,0.00,0.000000,,2013-11-25 11:12:00,
2013-11-25 02:22:00,21.0,15.0,-100.00,NNW,340,9.0,16.0,75,0.00,,,0.00,0.000000,,2013-11-25 11:22:00,
2013-11-25 02:52:00,21.0,15.0,-100.00,NNW,342,8.0,15.0,75,0.00,,,0.00,0.000000,,2013-11-25 11:52:00,
2013-11-25 03:02:00,21.0,15.0,-100.00,NNW,342,8.0,15.0,75,0.00,,,0.00,0.000000,,2013-11-25 12:02:00,
2013-11-25 03:11:00,21.0,15.0,-100.00,NNW,342,8.0,15.0,75,0.00,,,0.00,0.000000,,2013-11-25 12:11:00,
2013-11-25 03:21:00,21.0,15.0,-100.00,NNW,342,8.0,15.0,75,0.00,,,0.00,0.000000,,2013-11-25 12:21:00,
2013-11-25 03:52:00,21.0,14.0,-100.00,North,356,7.0,13.0,74,0.00,,,0.00,0.000000,,2013-11-25 12:52:00,
2013-11-25 04:01:00,21.0,14.0,-100.00,North,356,7.0,13.0,74,0.00,,,0.00,0.000000,,2013-11-25 13:01:00,
2013-11-25 04:11:00,21.0,14.0,-100.00,North,356,7.0,13.0,74,0.00,,,0.00,0.000000,,2013-11-25 13:11:00,
2013-11-25 04:52:00,21.0,14.0,-100.00,NNW,343,7.0,11.0,73,-99.99,,,0.00,0.000000,,2013-11-25 13:52:00,
2013-11-25 05:01:00,21.0,14.0,-100.00,NNW,343,7.0,11.0,73,-99.99,,,0.00,0.000000,,2013-11-25 14:01:00,
2013-11-25 05:11:00,21.0,14.0,-100.00,NNW,343,7.0,11.0,73,-99.99,,,0.00,0.000000,,2013-11-25 14:11:00,
2013-11-25 05:21:00,21.0,14.0,-100.00,NNW,343,7.0,11.0,73,-99.99,,,0.00,0.000000,,2013-11-25 14:21:00,
2013-11-25 05:52:00,23.0,16.0,-100.00,NNW,338,9.0,15.0,73,0.00,,,-99.99,0.000000,,2013-11-25 14:52:00,
2013-11-25 06:02:00,23.0,16.0,-100.00,NNW,338,9.0,15.0,73,0.00,,,-99.99,0.000000,,2013-11-25 15:02:00,
2013-11-25 06:11:00,23.0,16.0,-100.00,NNW,338,9.0,15.0,73,0.00,,,-99.99,0.000000,,2013-11-25 15:11:00,
2013-11-25 06:21:00,23.0,16.0,-100.00,NNW,338,9.0,15.0,73,0.00,,,-99.99,0.000000,,2013-11-25 15:21:00,
2013-11-25 06:54:00,23.0,15.0,-100.00,NW,321,11.0,17.0,72,0.00,,,0.00,0.000000,,2013-11-25 15:54:00,
2013-11-25 07:03:00,23.0,15.0,-100.00,NW,321,11.0,17.0,72,0.00,,,0.00,0.000000,,2013-11-25 16:03:00,
2013-11-25 07:13:00,23.0,15.0,-100.00,NW,321,11.0,17.0,72,0.00,,,0.00,0.000000,,2013-11-25 16:13:00,
2013-11-25 07:23:00,23.0,15.0,-100.00,NW,321,11.0,17.0,72,0.00,,,0.00,0.000000,,2013-11-25 16:23:00,
2013-11-25 07:52:00,25.0,17.0,-100.00,NNW,340,11.0,15.0,71,0.00,,,0.00,0.000000,,2013-11-25 16:52:00,
2013-11-25 08:03:00,25.0,17.0,-100.00,NNW,340,11.0,15.0,71,0.00,,,0.00,0.000000,,2013-11-25 17:03:00,
2013-11-25 08:12:00,25.0,17.0,-100.00,NNW,340,11.0,15.0,71,0.00,,,0.00,0.000000,,2013-11-25 17:12:00,
2013-11-25 08:22:00,25.0,17.0,-100.00,NNW,340,11.0,15.0,71,0.00,,,0.00,0.000000,,2013-11-25 17:22:00,
2013-11-25 08:52:00,25.0,17.0,-100.00,North,353,9.0,14.0,72,0.00,,,0.00,0.000000,,2013-11-25 17:52:00,
2013-11-25 09:02:00,25.0,17.0,-100.00,North,353,9.0,14.0,72,0.00,,,0.00,0.000000,,2013-11-25 18:02:00,
2013-11-25 09:12:00,25.0,17.0,-100.00,North,353,9.0,14.0,72,0.00,,,0.00,0.000000,,2013-11-25 18:12:00,
2013-11-25 09:52:00,25.0,16.0,-100.00,NNW,342,11.0,17.0,68,0.00,,,0.00,2.000000,,2013-11-25 18:52:00,
2013-11-25 10:02:00,25.0,16.0,-100.00,NNW,342,11.0,17.0,68,0.00,,,0.00,2.000000,,2013-11-25 19:02:00,
2013-11-25 10:11:00,25.0,16.0,-100.00,NNW,342,11.0,17.0,68,0.00,,,0.00,2.000000,,2013-11-25 19:11:00,
2013-11-25 10:21:00,25.0,16.0,-100.00,NNW,342,11.0,17.0,68,0.00,,,0.00,2.000000,,2013-11-25 19:21:00,
2013-11-25 10:52:00,25.0,16.0,-100.00,NNW,339,10.0,17.0,70,0.00,,,0.00,15.000000,,2013-11-25 19:52:00,
2013-11-25 11:01:00,25.0,16.0,-100.00,NNW,339,10.0,17.0,70,0.00,,,0.00,15.000000,,2013-11-25 20:01:00,
2013-11-25 11:12:00,25.0,16.0,-100.00,NNW,339,10.0,17.0,70,0.00,,,0.00,15.000000,,2013-11-25 20:12:00,
2013-11-25 11:21:00,25.0,16.0,-100.00,NNW,339,10.0,17.0,70,0.00,,,0.00,15.000000,,2013-11-25 20:21:00,
2013-11-25 11:52:00,25.0,17.0,-100.00,NNW,348,9.0,13.0,71,0.00,,,0.00,27.000000,,2013-11-25 20:52:00,
2013-11-25 12:01:00,25.0,17.0,-100.00,NNW,348,9.0,13.0,71,0.00,,,0.00,27.000000,,2013-11-25 21:01:00,
2013-11-25 12:11:00,25.0,17.0,-100.00,NNW,348,9.0,13.0,71,0.00,,,0.00,27.000000,,2013-11-25 21:11:00,
2013-11-25 12:22:00,25.0,17.0,-100.00,NNW,348,9.0,13.0,71,0.00,,,0.00,27.000000,,2013-11-25 21:22:00,
2013-11-25 12:53:00,27.0,19.0,-100.00,NNW,346,7.0,13.0,72,0.00,,,0.00,26.000000,,2013-11-25 21:53:00,
2013-11-25 13:03:00,27.0,19.0,-100.00,NNW,346,7.0,13.0,72,0.00,,,0.00,26.000000,,2013-11-25 22:03:00,
2013-11-25 13:13:00,27.0,19.0,-100.00,NNW,346,7.0,13.0,72,0.00,,,0.00,26.000000,,2013-11-25 22:13:00,
2013-11-25 13:23:00,27.0,19.0,-100.00,NNW,346,7.0,13.0,72,0.00,,,0.00,26.000000,,2013-11-25 22:23:00,
2013-11-25 13:53:00,27.0,17.0,-100.00,NNW,341,8.0,14.0,68,0.00,,,0.00,33.000000,,2013-11-25 22:53:00,
2013-11-25 14:02:00,27.0,17.0,-100.00,NNW,341,8.0,14.0,68,0.00,,,0.00,33.000000,,2013-11-25 23:02:00,
2013-11-25 14:12:00,27.0,17.0,-100.00,NNW,341,8.0,14.0,68,0.00,,,0.00,33.000000,,2013-11-25 23:12:00,
2013-11-25 14:22:00,27.0,17.0,-100.00,NNW,341,8.0,14.0,68,0.00,,,0.00,33.000000,,2013-11-25 23:22:00,
2013-11-25 14:52:00,27.0,17.0,-100.00,NNW,341,8.0,15.0,68,0.00,,,0.00,29.000000,,2013-11-25 23:52:00,
2013-11-25 15:01:00,27.0,17.0,-100.00,NNW,341,8.0,15.0,68,0.00,,,0.00,29.000000,,2013-11-26 00:01:00,
2013-11-25 15:11:00,27.0,17.0,-100.00,NNW,341,8.0,15.0,68,0.00,,,0.00,29.000000,,2013-11-26 00:11:00,
2013-11-25 15:21:00,27.0,17.0,-100.00,NNW,341,8.0,15.0,68,0.00,,,0.00,29.000000,,2013-11-26 00:21:00,
2013-11-25 15:52:00,27.0,18.0,-100.00,NNW,348,8.0,14.0,69,0.00,,,0.00,13.000000,,2013-11-26 00:52:00,
2013-11-25 16:01:00,27.0,18.0,-100.00,NNW,348,8.0,14.0,69,0.00,,,0.00,13.000000,,2013-11-26 01:01:00,
2013-11-25 16:11:00,27.0,18.0,-100.00,NNW,348,8.0,14.0,69,0.00,,,0.00,13.000000,,2013-11-26 01:11:00,
2013-11-25 16:21:00,27.0,18.0,-100.00,NNW,348,8.0,14.0,69,0.00,,,0.00,13.000000,,2013-11-26 01:21:00,
2013-11-25 16:52:00,27.0,18.0,-100.00,NNW,343,7.0,13.0,70,0.00,,,0.00,1.000000,,2013-11-26 01:52:00,
2013-11-25 17:01:00,27.0,18.0,-100.00,NNW,343,7.0,13.0,70,0.00,,,0.00,1.000000,,2013-11-26 02:01:00,
2013-11-25 17:11:00,27.0,18.0,-100.00,NNW,343,7.0,13.0,70,0.00,,,0.00,1.000000,,2013-11-26 02:11:00,
2013-11-25 17:21:00,27.0,18.0,-100.00,NNW,343,7.0,13.0,70,0.00,,,0.00,1.000000,,2013-11-26 02:21:00,
2013-11-25 17:52:00,27.0,16.0,-100.00,North,354,7.0,11.0,65,0.00,,,0.00,0.000000,,2013-11-26 02:52:00,
2013-11-25 18:01:00,27.0,16.0,-100.00,North,354,7.0,11.0,65,0.00,,,0.00,0.000000,,2013-11-26 03:01:00,
2013-11-25 18:11:00,27.0,16.0,-100.00,North,354,7.0,11.0,65,0.00,,,0.00,0.000000,,2013-11-26 03:11:00,
2013-11-25 18:22:00,27.0,16.0,-100.00,North,354,7.0,11.0,65,0.00,,,0.00,0.000000,,2013-11-26 03:22:00,
2013-11-25 18:54:00,27.0,21.0,-100.00,North,354,4.0,13.0,78,0.00,,,0.00,0.000000,,2013-11-26 03:54:00,
2013-11-25 19:03:00,27.0,21.0,-100.00,North,354,4.0,13.0,78,0.00,,,0.00,0.000000,,2013-11-26 04:03:00,
2013-11-25 19:13:00,27.0,21.0,-100.00,North,354,4.0,13.0,78,0.00,,,0.00,0.000000,,2013-11-26 04:13:00,
2013-11-25 19:23:00,27.0,21.0,-100.00,North,354,4.0,13.0,78,0.00,,,0.00,0.000000,,2013-11-26 04:23:00,
2013-11-25 19:53:00,27.0,23.0,-100.00,North,6,2.0,4.0,85,0.00,,,0.00,0.000000,,2013-11-26 04:53:00,
2013-11-25 20:02:00,27.0,23.0,-100.00,North,6,2.0,4.0,85,0.00,,,0.00,0.000000,,2013-11-26 05:02:00,
2013-11-25 20:12:00,27.0,23.0,-100.00,North,6,2.0,4.0,85,0.00,,,0.00,0.000000,,2013-11-26 05:12:00,
2013-11-25 20:22:00,27.0,23.0,-100.00,North,6,2.0,4.0,85,0.00,,,0.00,0.000000,,2013-11-26 05:22:00,
2013-11-25 20:53:00,27.0,25.0,-100.00,ENE,58,0.0,2.0,95,0.00,,,0.00,0.000000,,2013-11-26 05:53:00,
2013-11-25 21:02:00,27.0,25.0,-100.00,ENE,58,0.0,2.0,95,0.00,,,0.00,0.000000,,2013-11-26 06:02:00,
2013-11-25 21:12:00,27.0,25.0,-100.00,ENE,58,0.0,2.0,95,0.00,,,0.00,0.000000,,2013-11-26 06:12:00,
2013-11-25 21:22:00,27.0,25.0,-100.00,ENE,58,0.0,2.0,95,0.00,,,0.00,0.000000,,2013-11-26 06:22:00,
2013-11-25 21:52:00,27.0,25.0,-100.00,WNW,288,1.0,2.0,95,0.00,,,0.00,0.000000,,2013-11-26 06:52:00,
2013-11-25 22:02:00,27.0,25.0,-100.00,WNW,288,1.0,2.0,95,0.00,,,0.00,0.000000,,2013-11-26 07:02:00,
2013-11-25 22:12:00,27.0,25.0,-100.00,WNW,288,1.0,2.0,95,0.00,,,0.00,0.000000,,2013-11-26 07:12:00,
2013-11-25 22:21:00,27.0,25.0,-100.00,WNW,288,1.0,2.0,95,0.00,,,0.00,0.000000,,2013-11-26 07:21:00,
2013-11-25 22:52:00,27.0,26.0,-100.00,NW,322,0.0,1.0,97,0.00,,,0.00,0.000000,,2013-11-26 07:52:00,
2013-11-25 23:02:00,27.0,26.0,-100.00,NW,322,0.0,1.0,97,0.00,,,0.00,0.000000,,2013-11-26 08:02:00,
2013-11-25 23:11:00,27.0,26.0,-100.00,NW,322,0.0,1.0,97,0.00,,,0.00,0.000000,,2013-11-26 08:11:00,
2013-11-25 23:22:00,27.0,26.0,-100.00,NW,322,0.0,1.0,97,0.00,,,0.00,0.000000,,2013-11-26 08:22:00,
2013-11-25 23:52:00,27.0,26.0,-100.00,NNW,338,0.0,2.0,98,0.00,,,-99.99,0.000000,,2013-11-26 08:52:00,